createdAt,value
2023-04-01T00:04:03.172Z,1.10
2023-04-01T00:08:08.115Z,1.23
2023-04-01T00:12:11.081Z,0.98
2023-04-01T00:16:21.610Z,1.42
2023-04-01T00:20:25.666Z,1.20
2023-04-01T00:24:29.881Z,1.20
2023-04-01T00:28:32.818Z,1.00
2023-04-01T00:32:36.009Z,1.30
2023-04-01T00:36:39.561Z,1.00
2023-04-01T00:40:45.877Z,1.60
2023-04-01T00:44:51.875Z,1.60
2023-04-01T00:48:56.631Z,1.25
2023-04-01T00:53:00.784Z,1.38
2023-04-01T00:57:08.436Z,1.00
2023-04-01T01:01:11.764Z,0.98
2023-04-01T01:05:15.587Z,1.02
2023-04-01T01:13:34.823Z,1.17
2023-04-01T01:17:46.527Z,1.10
2023-04-01T01:21:59.188Z,0.93
2023-04-01T01:26:23.467Z,0.90
2023-04-01T01:30:38.908Z,1.15
2023-04-01T01:34:47.113Z,1.20
2023-04-01T01:38:52.870Z,1.27
2023-04-01T01:42:58.379Z,1.52
2023-04-01T01:47:02.132Z,0.95
2023-04-01T01:51:05.728Z,1.40
2023-04-01T01:55:29.942Z,0.98
2023-04-01T01:59:34.341Z,1.10
2023-04-01T02:03:39.009Z,1.60
2023-04-01T02:07:44.940Z,0.70
2023-04-01T02:11:52.229Z,1.23
2023-04-01T02:15:58.199Z,1.35
2023-04-01T02:20:05.468Z,1.45
2023-04-01T02:24:11.587Z,1.23
2023-04-01T02:28:17.663Z,1.20
2023-04-01T02:32:21.828Z,0.85
2023-04-01T02:36:24.894Z,1.20
2023-04-01T02:40:27.888Z,1.10
2023-04-01T02:44:32.024Z,1.27
2023-04-01T02:48:34.908Z,1.10
2023-04-01T02:52:37.933Z,1.33
2023-04-01T02:56:40.941Z,1.00
2023-04-01T03:00:45.282Z,0.82
2023-04-01T03:04:48.020Z,1.30
2023-04-01T03:08:50.701Z,1.13
2023-04-01T03:12:53.397Z,1.10
2023-04-01T03:16:57.708Z,1.30
2023-04-01T03:21:15.268Z,0.98
2023-04-01T03:25:18.111Z,0.80
2023-04-01T03:29:21.198Z,1.40
2023-04-01T03:33:25.483Z,1.00
2023-04-01T03:37:28.553Z,1.30
2023-04-01T03:41:31.794Z,0.90
2023-04-01T03:45:34.879Z,1.02
2023-04-01T03:49:39.380Z,1.02
2023-04-01T03:53:42.105Z,1.02
2023-04-01T03:57:44.948Z,0.80
2023-04-01T04:01:49.497Z,0.90
2023-04-01T04:05:53.998Z,0.85
2023-04-01T04:09:56.831Z,0.85
2023-04-01T04:13:59.653Z,1.25
2023-04-01T04:18:02.619Z,0.88
2023-04-01T04:22:06.801Z,0.60
2023-04-01T04:26:11.109Z,0.85
2023-04-01T04:30:14.579Z,1.08
2023-04-01T04:34:17.440Z,0.93
2023-04-01T04:38:21.658Z,0.93
2023-04-01T04:42:24.513Z,0.60
2023-04-01T04:46:27.523Z,0.90
2023-04-01T04:50:30.665Z,0.60
2023-04-01T04:54:34.810Z,0.95
2023-04-01T04:58:37.747Z,0.75
2023-04-01T05:02:40.846Z,0.65
2023-04-01T05:06:45.344Z,4.05
2023-04-01T05:10:49.574Z,2.88
2023-04-01T05:14:52.279Z,0.80
2023-04-01T05:18:55.043Z,0.80
2023-04-01T05:22:58.257Z,0.75
2023-04-01T05:27:02.523Z,0.93
2023-04-01T05:31:05.456Z,0.45
2023-04-01T05:35:09.118Z,0.85
2023-04-01T05:39:12.261Z,0.82
2023-04-01T05:43:16.351Z,0.93
2023-04-01T05:47:19.114Z,1.00
2023-04-01T05:51:21.945Z,1.13
2023-04-01T05:55:24.856Z,1.00
2023-04-01T05:59:29.120Z,1.27
2023-04-01T06:03:32.148Z,0.73
2023-04-01T06:07:35.037Z,0.70
2023-04-01T06:11:47.328Z,1.00
2023-04-01T06:15:56.636Z,0.68
2023-04-01T06:20:06.235Z,0.80
2023-04-01T06:24:27.565Z,0.90
2023-04-01T06:28:42.163Z,0.88
2023-04-01T06:33:00.050Z,0.88
2023-04-01T06:37:13.486Z,0.60
2023-04-01T06:42:13.903Z,0.90
2023-04-01T06:46:22.563Z,0.60
2023-04-01T06:50:31.685Z,0.47
2023-04-01T06:54:36.898Z,0.38
2023-04-01T06:58:42.312Z,0.60
2023-04-01T07:02:48.709Z,0.68
2023-04-01T07:06:55.096Z,0.60
2023-04-01T07:11:00.688Z,0.30
2023-04-01T07:15:08.123Z,0.50
2023-04-01T07:19:14.733Z,0.43
2023-04-01T07:23:23.959Z,0.20
2023-04-01T07:27:26.791Z,0.80
2023-04-01T07:31:52.322Z,0.70
2023-04-01T07:35:58.209Z,0.68
2023-04-01T07:40:11.940Z,0.50
2023-04-01T07:44:19.952Z,0.65
2023-04-01T07:48:27.864Z,0.45
2023-04-01T07:52:36.571Z,0.80
2023-04-01T07:56:47.120Z,0.50
2023-04-01T08:00:54.311Z,0.77
2023-04-01T08:05:02.790Z,0.90
2023-04-01T08:09:11.381Z,0.80
2023-04-01T08:13:22.874Z,0.63
2023-04-01T08:17:31.457Z,0.55
2023-04-01T08:21:37.602Z,4.25
2023-04-01T08:25:41.997Z,1.30
2023-04-01T08:29:53.242Z,0.80
2023-04-01T08:33:56.894Z,0.50
2023-04-01T08:38:03.451Z,0.75
2023-04-01T08:42:25.657Z,0.90
2023-04-01T08:46:58.472Z,0.50
2023-04-01T08:51:25.543Z,0.70
2023-04-01T08:55:41.530Z,0.47
2023-04-01T08:59:58.281Z,0.60
2023-04-01T09:04:26.663Z,0.65
2023-04-01T09:08:39.972Z,0.60
2023-04-01T09:12:57.817Z,1.80
2023-04-01T09:17:21.622Z,0.73
2023-04-01T09:21:34.414Z,0.52
2023-04-01T09:25:56.172Z,0.45
2023-04-01T09:30:35.990Z,0.57
2023-04-01T09:34:56.890Z,1.02
2023-04-01T09:39:02.037Z,0.50
2023-04-01T09:43:24.255Z,1.10
2023-04-01T09:47:41.282Z,0.40
2023-04-01T09:51:55.714Z,0.47
2023-04-01T09:56:40.534Z,0.40
2023-04-01T10:01:07.546Z,0.50
2023-04-01T10:05:41.862Z,0.45
2023-04-01T10:10:32.516Z,0.55
2023-04-01T10:15:11.953Z,0.55
2023-04-01T10:19:42.031Z,0.50
2023-04-01T10:23:57.483Z,0.55
2023-04-01T10:28:32.459Z,0.70
2023-04-01T10:33:20.005Z,0.30
2023-04-01T10:37:41.934Z,0.40
2023-04-01T10:42:22.084Z,0.28
2023-04-01T10:46:55.613Z,0.40
2023-04-01T10:51:18.428Z,0.50
2023-04-01T10:55:44.492Z,0.55
2023-04-01T11:00:25.903Z,0.30
2023-04-01T11:05:04.992Z,0.50
2023-04-01T11:09:44.361Z,0.60
2023-04-01T11:14:18.443Z,0.52
2023-04-01T11:19:03.720Z,0.20
2023-04-01T11:23:51.973Z,0.80
2023-04-01T11:28:26.478Z,0.30
2023-04-01T11:32:47.725Z,0.60
2023-04-01T11:37:00.619Z,2.10
2023-04-01T11:41:13.101Z,1.70
2023-04-01T11:45:29.820Z,2.83
2023-04-01T11:49:42.517Z,1.00
2023-04-01T11:53:50.670Z,1.75
2023-04-01T11:58:05.912Z,1.10
2023-04-01T12:02:14.301Z,0.80
2023-04-01T12:06:21.513Z,1.80
2023-04-01T12:10:29.905Z,0.90
2023-04-01T12:14:36.750Z,0.70
2023-04-01T12:18:44.021Z,0.75
2023-04-01T12:22:52.742Z,0.60
2023-04-01T12:27:04.790Z,1.10
2023-04-01T12:31:21.644Z,0.80
2023-04-01T12:35:28.238Z,0.50
2023-04-01T12:39:43.601Z,0.85
2023-04-01T12:44:01.084Z,0.60
2023-04-01T12:48:33.221Z,0.88
2023-04-01T12:52:44.703Z,0.80
2023-04-01T12:56:56.184Z,0.90
2023-04-01T13:01:12.129Z,0.88
2023-04-01T13:05:25.573Z,0.90
2023-04-01T13:09:39.164Z,1.00
2023-04-01T13:13:58.654Z,0.70
2023-04-01T13:18:12.362Z,0.80
2023-04-01T13:22:19.599Z,0.70
2023-04-01T13:26:30.696Z,0.60
2023-04-01T13:30:38.050Z,0.80
2023-04-01T13:34:54.539Z,0.82
2023-04-01T13:39:09.120Z,0.77
2023-04-01T13:43:17.684Z,0.90
2023-04-01T13:47:33.818Z,0.82
2023-04-01T13:55:57.921Z,0.65
2023-04-01T14:00:39.322Z,1.10
2023-04-01T14:05:11.768Z,0.60
2023-04-01T14:09:37.442Z,0.93
2023-04-01T14:13:48.640Z,0.70
2023-04-01T14:18:06.798Z,0.80
2023-04-01T14:22:16.252Z,1.17
2023-04-01T14:26:28.332Z,0.88
2023-04-01T14:30:59.794Z,0.77
2023-04-01T14:35:18.175Z,0.85
2023-04-01T14:39:36.155Z,0.80
2023-04-01T14:44:26.935Z,0.80
2023-04-01T14:48:33.343Z,0.82
2023-04-01T14:52:38.743Z,0.50
2023-04-01T14:56:44.632Z,0.50
2023-04-01T15:00:55.340Z,0.52
2023-04-01T15:05:01.160Z,0.57
2023-04-01T15:09:08.745Z,0.82
2023-04-01T15:13:15.801Z,2.53
2023-04-01T15:17:43.172Z,0.70
2023-04-01T15:21:58.371Z,0.70
2023-04-01T15:26:13.936Z,0.80
2023-04-01T15:30:33.159Z,1.02
2023-04-01T15:34:39.279Z,0.63
2023-04-01T15:38:49.076Z,1.77
2023-04-01T15:43:01.789Z,0.50
2023-04-01T15:47:11.743Z,0.60
2023-04-01T15:51:23.193Z,1.10
2023-04-01T15:55:29.280Z,0.47
2023-04-01T15:59:49.629Z,0.73
2023-04-01T16:03:58.650Z,1.65
2023-04-01T16:08:24.107Z,0.88
2023-04-01T16:12:38.767Z,0.82
2023-04-01T16:16:52.464Z,0.68
2023-04-01T16:21:00.317Z,0.80
2023-04-01T16:25:19.842Z,0.82
2023-04-01T16:29:29.353Z,0.40
2023-04-01T16:33:40.147Z,0.63
2023-04-01T16:37:48.735Z,0.90
2023-04-01T16:41:52.519Z,0.60
2023-04-01T16:50:21.364Z,0.35
2023-04-01T16:54:31.337Z,1.00
2023-04-01T16:58:37.036Z,1.10
2023-04-01T17:02:40.931Z,1.23
2023-04-01T17:06:46.508Z,1.02
2023-04-01T17:10:54.394Z,1.40
2023-04-01T17:15:03.737Z,0.70
2023-04-01T17:19:12.506Z,0.75
2023-04-01T17:23:22.353Z,0.80
2023-04-01T17:27:37.093Z,0.70
2023-04-01T17:31:48.704Z,1.80
2023-04-01T17:35:59.057Z,1.40
2023-04-01T17:40:14.553Z,1.90
2023-04-01T17:44:27.873Z,1.20
2023-04-01T17:48:42.191Z,1.30
2023-04-01T17:52:47.640Z,1.40
2023-04-01T17:57:00.919Z,2.47
2023-04-01T18:01:14.280Z,0.80
2023-04-01T18:05:29.277Z,1.02
2023-04-01T18:09:36.807Z,1.33
2023-04-01T18:14:00.645Z,1.00
2023-04-01T18:18:13.805Z,0.93
2023-04-01T18:22:21.358Z,0.90
2023-04-01T18:26:25.642Z,0.80
2023-04-01T18:30:30.759Z,1.00
2023-04-01T18:34:43.405Z,1.40
2023-04-01T18:38:50.552Z,1.02
2023-04-01T18:43:02.647Z,1.20
2023-04-01T18:47:13.412Z,1.13
2023-04-01T18:51:20.000Z,0.88
2023-04-01T18:55:36.479Z,1.33
2023-04-01T18:59:41.677Z,1.38
2023-04-01T19:03:50.905Z,0.95
2023-04-01T19:07:56.071Z,1.08
2023-04-01T19:12:17.491Z,1.15
2023-04-01T19:16:28.571Z,1.20
2023-04-01T19:20:35.328Z,1.30
2023-04-01T19:24:56.336Z,1.20
2023-04-01T19:29:03.740Z,0.80
2023-04-01T19:33:17.845Z,0.77
2023-04-01T19:37:28.582Z,1.02
2023-04-01T19:41:41.736Z,1.30
2023-04-01T19:45:47.848Z,0.95
2023-04-01T19:49:55.841Z,1.42
2023-04-01T19:54:02.108Z,1.17
2023-04-01T19:58:09.448Z,1.23
2023-04-01T20:02:36.115Z,1.20
2023-04-01T20:06:46.252Z,1.42
2023-04-01T20:14:57.120Z,1.65
2023-04-01T20:19:01.710Z,1.88
2023-04-01T20:23:10.253Z,1.52
2023-04-01T20:27:19.357Z,1.38
2023-04-01T20:31:33.483Z,1.52
2023-04-01T20:35:46.824Z,1.70
2023-04-01T20:40:19.436Z,1.88
2023-04-01T20:44:23.937Z,2.20
2023-04-01T20:48:38.842Z,1.83
2023-04-01T20:52:44.083Z,1.67
2023-04-01T20:56:57.045Z,1.70
2023-04-01T21:01:08.305Z,2.35
2023-04-01T21:05:29.437Z,2.28
2023-04-01T21:09:40.960Z,2.58
2023-04-01T21:13:54.120Z,2.58
2023-04-01T21:18:03.497Z,2.58
2023-04-01T21:22:29.328Z,2.28
2023-04-01T21:26:43.825Z,2.10
2023-04-01T21:31:02.710Z,2.38
2023-04-01T21:35:10.710Z,2.45
2023-04-01T21:39:24.345Z,2.20
2023-04-01T21:43:42.439Z,1.90
2023-04-01T21:48:29.965Z,1.85
2023-04-01T21:57:19.177Z,1.67
2023-04-01T22:01:54.990Z,2.60
2023-04-01T22:06:04.905Z,2.47
2023-04-01T22:10:16.059Z,2.00
2023-04-01T22:14:24.663Z,1.95
2023-04-01T22:18:34.697Z,1.60
2023-04-01T22:22:55.436Z,1.38
2023-04-01T22:27:02.640Z,1.83
2023-04-01T22:31:07.755Z,1.38
2023-04-01T22:35:16.283Z,1.80
2023-04-01T22:39:31.055Z,2.10
2023-04-01T22:43:39.141Z,2.50
2023-04-01T22:47:52.620Z,3.22
2023-04-01T22:51:58.016Z,3.42
2023-04-01T22:56:07.517Z,3.17
2023-04-01T23:00:16.281Z,4.88
2023-04-01T23:04:24.438Z,2.83
2023-04-01T23:08:52.308Z,3.83
2023-04-01T23:13:00.491Z,3.22
2023-04-01T23:17:13.227Z,3.63
2023-04-01T23:21:18.761Z,3.10
2023-04-01T23:25:28.943Z,4.38
2023-04-01T23:29:37.722Z,2.78
2023-04-01T23:33:40.673Z,3.22
2023-04-01T23:37:43.579Z,3.13
2023-04-01T23:41:46.717Z,3.33
2023-04-01T23:45:51.357Z,3.53
2023-04-01T23:49:56.066Z,3.55
2023-04-01T23:54:01.626Z,2.42
2023-04-01T23:58:16.274Z,2.58
